»·PEaware :: QXE2090 KBOI-KGEG

QXE2090 :: KBOI-KGEG

FLIGHT INFORMATION

Flight Status: Arrived
Operator:
Horizon Air
More flights by this operator :: More flights under this callsign
Pilot: Henderson P. (1210)
Aircraft: DEHAVILLAND DASH 8 400
(DH8D)
More flights by this aircraft type
Origin: KBOI Boise Air Terminal/Gowen
United States
Destination: KGEG Spokane Intl
United States
More flights between these airports :: More routes between these airports
Route: +BOI3 BOI DEETZ ODYSY GEG
File this flight plan on PilotEdge
Remarks:
Altitude:
(Current/Filed)
24,000ft
Speed:
(Current/Filed)
321kts
Departed: 24-Jan-19 08:06 PM
Arrived: 24-Jan-19 09:11 PM
Distance/Time
Traveled:
250nm/1:05
Distance/Time
To Go:
Arrived

Flight Plot

Page will automatically refresh every two minutes.

Flight plan parsing failed; only flown route is shown


Map Options




Map Legend


Flown Route
Filed Route
Departure Airport
Arrival Airport
Navaid (VOR, NDB)
Fix

Horizontal Profiles

Position Reports

Time Latitude Longitude Heading Altitude Ground
Speed
24-Jan-19 19:47 43.567241 -116.222016 24 2841ft 0kts
24-Jan-19 19:48 43.567241 -116.222016 24 2841ft 0kts
24-Jan-19 19:49 43.567241 -116.222016 24 2841ft 0kts
24-Jan-19 19:50 43.567241 -116.222016 24 2841ft 0kts
24-Jan-19 19:51 43.567241 -116.222016 24 2841ft 0kts
24-Jan-19 19:52 43.567241 -116.222016 24 2841ft 0kts
24-Jan-19 19:53 43.567241 -116.222016 24 2841ft 0kts
24-Jan-19 19:54 43.567241 -116.222016 24 2841ft 0kts
24-Jan-19 19:55 43.567241 -116.222016 24 2841ft 0kts
24-Jan-19 19:56 43.567241 -116.222016 24 2841ft 0kts
24-Jan-19 19:57 43.567241 -116.222016 24 2841ft 0kts
24-Jan-19 19:58 43.567241 -116.222016 24 2841ft 0kts
24-Jan-19 19:59 43.567241 -116.222016 24 2841ft 0kts
24-Jan-19 20:00 43.567241 -116.222016 24 2841ft 0kts
24-Jan-19 20:01 43.566501 -116.222179 132 2841ft 10kts
24-Jan-19 20:02 43.564049 -116.215040 115 2841ft 27kts
24-Jan-19 20:03 43.560987 -116.205985 114 2841ft 24kts
24-Jan-19 20:04 43.558992 -116.204032 295 2841ft 16kts
24-Jan-19 20:05 43.571339 -116.242826 286 3863ft 149kts
24-Jan-19 20:06 43.585632 -116.305937 292 5848ft 209kts
24-Jan-19 20:07 43.630025 -116.349992 13 7984ft 239kts
24-Jan-19 20:08 43.693104 -116.320780 17 9998ft 243kts
24-Jan-19 20:09 43.755295 -116.290602 15 11998ft 235kts
24-Jan-19 20:10 43.817159 -116.261197 13 13506ft 237kts
24-Jan-19 20:11 43.879700 -116.231808 13 14831ft 240kts
24-Jan-19 20:12 43.943462 -116.201897 12 16036ft 242kts
24-Jan-19 20:13 44.008245 -116.171668 12 17108ft 245kts
24-Jan-19 20:15 44.073323 -116.141230 11 18111ft 247kts
24-Jan-19 20:16 44.138783 -116.110849 11 19117ft 247kts
24-Jan-19 20:17 44.204128 -116.080749 8 20121ft 242kts
24-Jan-19 20:18 44.269633 -116.070631 0 21124ft 233kts
24-Jan-19 20:19 44.333756 -116.062598 359 22125ft 227kts
24-Jan-19 20:20 44.393728 -116.069654 341 23114ft 214kts
24-Jan-19 20:21 44.449685 -116.093803 341 24109ft 205kts
24-Jan-19 20:22 44.506654 -116.119866 340 24362ft 230kts
24-Jan-19 20:23 44.570251 -116.149446 341 24367ft 255kts
24-Jan-19 20:24 44.639870 -116.181899 341 24368ft 271kts
24-Jan-19 20:25 44.711518 -116.215414 341 24365ft 280kts
24-Jan-19 20:26 44.786309 -116.250533 341 24362ft 286kts
24-Jan-19 20:27 44.862981 -116.286215 341 24361ft 289kts
24-Jan-19 20:28 44.939089 -116.321748 341 24361ft 291kts
24-Jan-19 20:29 45.015570 -116.357978 341 24364ft 291kts
24-Jan-19 20:30 45.093133 -116.394898 341 24369ft 292kts
24-Jan-19 20:31 45.170576 -116.431649 341 24378ft 292kts
24-Jan-19 20:32 45.247417 -116.468347 341 24382ft 292kts
24-Jan-19 20:33 45.324730 -116.505355 341 24389ft 292kts
24-Jan-19 20:34 45.402003 -116.542454 341 24396ft 291kts
24-Jan-19 20:34 45.466602 -116.573634 341 24401ft 291kts
24-Jan-19 20:35 45.544154 -116.610980 341 24406ft 291kts
24-Jan-19 20:37 45.634424 -116.654681 341 24412ft 291kts
24-Jan-19 20:38 45.711776 -116.692283 341 24416ft 291kts
24-Jan-19 20:38 45.775682 -116.723394 341 24418ft 291kts
24-Jan-19 20:39 45.852822 -116.760989 341 24423ft 295kts
24-Jan-19 20:40 45.931119 -116.799428 341 24428ft 297kts
24-Jan-19 20:42 46.023089 -116.844604 341 24443ft 299kts
24-Jan-19 20:42 46.088552 -116.876853 341 24447ft 300kts
24-Jan-19 20:43 46.167803 -116.915999 341 24451ft 301kts
24-Jan-19 20:44 46.246951 -116.955277 341 24453ft 302kts
24-Jan-19 20:45 46.325685 -116.994369 340 24457ft 302kts
24-Jan-19 20:46 46.405241 -117.034092 340 24458ft 303kts
24-Jan-19 20:47 46.483636 -117.073325 340 24455ft 303kts
24-Jan-19 20:48 46.563439 -117.113340 340 24446ft 303kts
24-Jan-19 20:49 46.643135 -117.153471 340 24436ft 303kts
24-Jan-19 20:50 46.722800 -117.193732 340 24432ft 303kts
24-Jan-19 20:51 46.804139 -117.235025 340 23024ft 310kts
24-Jan-19 20:52 46.885705 -117.276306 340 21194ft 309kts
24-Jan-19 20:53 46.966778 -117.317734 340 19371ft 308kts
24-Jan-19 20:54 47.047590 -117.359055 340 17299ft 312kts
24-Jan-19 20:55 47.126960 -117.399726 340 15381ft 307kts
24-Jan-19 20:56 47.204349 -117.439558 339 13624ft 297kts
24-Jan-19 20:57 47.276767 -117.412576 44 11875ft 311kts
24-Jan-19 20:58 47.331343 -117.329052 18 10119ft 274kts
24-Jan-19 20:59 47.400554 -117.294386 15 8370ft 272kts
24-Jan-19 21:00 47.469278 -117.271025 4 6607ft 250kts
24-Jan-19 21:01 47.535296 -117.257817 5 6033ft 237kts
24-Jan-19 21:02 47.598807 -117.245483 5 6025ft 235kts
24-Jan-19 21:03 47.662933 -117.233342 5 6023ft 237kts
24-Jan-19 21:04 47.726909 -117.230907 328 5114ft 229kts
24-Jan-19 21:05 47.753273 -117.303157 252 5018ft 215kts
24-Jan-19 21:06 47.723316 -117.375154 232 4888ft 202kts
24-Jan-19 21:07 47.687938 -117.433498 227 3951ft 171kts
24-Jan-19 21:08 47.660674 -117.474668 224 3173ft 129kts
24-Jan-19 21:09 47.635774 -117.511505 222 2528ft 130kts
24-Jan-19 21:10 47.618470 -117.537513 226 2357ft 29kts
24-Jan-19 21:11 47.618362 -117.541577 328 2358ft 5kts
24-Jan-19 21:12 47.620576 -117.538371 44 2357ft 18kts
24-Jan-19 21:13 47.623322 -117.536862 21 2357ft 11kts
24-Jan-19 21:14 47.623863 -117.537262 238 2357ft 0kts
24-Jan-19 21:15 47.623863 -117.537262 238 2357ft 0kts
24-Jan-19 21:16 47.623863 -117.537262 238 2357ft 0kts
24-Jan-19 21:17 47.623863 -117.537262 238 2357ft 0kts

Navigation Log

Ident Type
Flight plan parsing failed, navigation log unavailable